Time;durP1;ratioP1;P1;durP2;ratioP2;P2;SDS_P1;SDS_P2;PMS_P1;PMS_P2;Temp;Humidity;BMP_temperature;BMP_pressure;BME280_temperature;BME280_humidity;BME280_pressure;Samples;Min_cycle;Max_cycle;Signal;HPM_P1;HPM_P2
2022/04/01 00:00:47;;;;;;;18.00;4.23;;;;;;;19.43;39.33;92955.41;5117407;28;20220;-73
2022/04/01 00:03:13;;;;;;;14.20;5.63;;;;;;;19.26;39.92;92938.16;5118151;28;20176;-73
2022/04/01 00:05:40;;;;;;;21.17;5.33;;;;;;;19.45;39.71;92935.44;5121251;28;20211;-74
2022/04/01 00:08:06;;;;;;;29.40;7.33;;;;;;;19.69;38.87;92930.00;5114192;28;20208;-73
2022/04/01 00:10:31;;;;;;;19.93;6.47;;;;;;;19.84;38.55;92914.88;5116057;28;20449;-73
2022/04/01 00:12:58;;;;;;;27.27;8.27;;;;;;;19.92;38.40;92916.03;5121990;28;20970;-74
2022/04/01 00:15:23;;;;;;;30.17;7.20;;;;;;;19.80;37.96;92925.28;5118315;28;20173;-74
2022/04/01 00:17:50;;;;;;;24.80;7.80;;;;;;;19.46;39.91;92923.75;5114902;28;20437;-73
2022/04/01 00:20:18;;;;;;;24.03;7.53;;;;;;;19.86;39.09;92918.00;5124719;28;20215;-73
2022/04/01 00:22:44;;;;;;;30.63;7.83;;;;;;;19.35;40.08;92887.06;5119578;28;20417;-73
2022/04/01 00:25:09;;;;;;;32.93;8.10;;;;;;;19.53;39.55;92899.50;5115058;28;20842;-74
2022/04/01 00:27:35;;;;;;;23.83;6.80;;;;;;;19.77;38.96;92911.81;5113838;28;20423;-74
2022/04/01 00:30:01;;;;;;;22.03;6.77;;;;;;;19.17;40.79;92918.66;5115874;28;20215;-73
2022/04/01 00:32:29;;;;;;;17.63;6.40;;;;;;;17.92;46.20;92917.97;5121158;28;20434;-73
2022/04/01 00:34:54;;;;;;;25.10;6.93;;;;;;;18.36;46.04;92916.13;5119014;28;20173;-74
2022/04/01 00:37:20;;;;;;;19.30;6.83;;;;;;;17.27;49.74;92926.28;5118504;28;20414;-74
2022/04/01 00:39:46;;;;;;;20.67;8.20;;;;;;;17.73;48.58;92947.00;5115248;28;20176;-74
2022/04/01 00:42:12;;;;;;;23.33;8.17;;;;;;;17.76;48.83;92935.09;5112056;28;20173;-73
2022/04/01 00:44:39;;;;;;;21.83;7.53;;;;;;;17.88;48.14;92958.53;5109245;28;20446;-74
2022/04/01 00:47:07;;;;;;;26.43;9.70;;;;;;;17.66;48.98;92958.97;5116696;28;20427;-73
2022/04/01 00:49:33;;;;;;;27.40;8.33;;;;;;;17.26;50.04;92945.84;5109521;28;20424;-74
2022/04/01 00:52:02;;;;;;;19.80;7.83;;;;;;;17.11;50.70;92930.94;5116559;28;20536;-73
2022/04/01 00:54:28;;;;;;;30.67;10.77;;;;;;;17.26;50.29;92953.78;5122346;27;20409;-74
2022/04/01 00:56:54;;;;;;;24.40;8.90;;;;;;;17.16;49.95;92954.66;5117309;28;20513;-74
2022/04/01 00:59:20;;;;;;;24.23;7.33;;;;;;;17.30;50.65;92964.59;5120656;28;20255;-74
2022/04/01 01:01:47;;;;;;;31.50;10.37;;;;;;;17.48;49.98;92934.03;5115338;28;20477;-74
2022/04/01 01:04:14;;;;;;;28.13;8.73;;;;;;;17.25;49.43;92936.34;5112155;28;20950;-74
2022/04/01 01:06:50;;;;;;;19.60;8.63;;;;;;;17.54;49.39;92957.50;5119878;28;20484;-73
2022/04/01 01:09:17;;;;;;;30.03;10.10;;;;;;;17.25;49.83;92917.06;5119550;28;20409;-74
2022/04/01 01:11:44;;;;;;;25.40;9.00;;;;;;;17.50;48.14;92947.78;5114449;28;20440;-74
2022/04/01 01:14:11;;;;;;;17.07;5.70;;;;;;;17.44;49.28;92954.19;5126920;28;20402;-73
2022/04/01 01:16:46;;;;;;;20.43;8.43;;;;;;;17.15;50.06;92931.16;5120169;28;20430;-73
2022/04/01 01:19:17;;;;;;;16.23;8.10;;;;;;;17.56;49.16;92970.44;5120623;28;20477;-74
2022/04/01 01:21:44;;;;;;;23.07;8.50;;;;;;;17.50;48.70;92945.13;5121544;28;21014;-73
2022/04/01 01:24:13;;;;;;;31.03;9.27;;;;;;;17.81;48.40;92947.47;5120480;28;20465;-73
2022/04/01 01:26:39;;;;;;;25.23;10.43;;;;;;;17.90;47.90;92943.16;5119197;28;20437;-73
2022/04/01 01:29:06;;;;;;;32.67;10.63;;;;;;;17.74;48.41;92916.84;5136089;27;20440;-74
2022/04/01 01:31:33;;;;;;;22.37;8.67;;;;;;;17.33;49.43;92922.53;5125804;28;20491;-75
2022/04/01 01:33:58;;;;;;;39.53;11.13;;;;;;;17.68;47.48;92928.56;5126513;28;20440;-74
2022/04/01 01:36:27;;;;;;;35.83;10.03;;;;;;;17.78;47.46;92914.41;5112392;28;20426;-74
2022/04/01 01:38:52;;;;;;;26.00;8.40;;;;;;;17.23;47.97;92922.63;5112297;28;20223;-73
2022/04/01 01:41:18;;;;;;;20.53;8.37;;;;;;;17.59;46.76;92921.50;5119776;28;20431;-74
2022/04/01 01:43:43;;;;;;;18.73;7.53;;;;;;;17.50;47.04;92921.31;5104848;28;20203;-74
2022/04/01 01:46:09;;;;;;;25.33;8.53;;;;;;;17.27;46.94;92897.22;5119985;28;20215;-74
2022/04/01 01:48:35;;;;;;;22.20;7.53;;;;;;;17.74;45.90;92900.19;5105913;28;20180;-74
2022/04/01 01:56:29;;;;;;;23.63;6.90;;;;;;;17.95;44.85;92922.72;5112446;28;20505;-74
2022/04/01 01:58:55;;;;;;;32.43;8.87;;;;;;;17.86;45.11;92876.00;5113282;28;20423;-74
2022/04/01 02:01:22;;;;;;;29.83;10.27;;;;;;;17.88;44.40;92873.84;5124289;28;20224;-74
2022/04/01 02:03:47;;;;;;;24.90;9.50;;;;;;;18.16;44.35;92852.88;5125469;28;20180;-74
2022/04/01 02:06:13;;;;;;;28.27;8.47;;;;;;;17.85;43.94;92832.06;5111970;28;20437;-73
2022/04/01 02:08:40;;;;;;;24.37;6.50;;;;;;;17.87;44.66;92859.03;5126004;28;20160;-74
2022/04/01 02:11:07;;;;;;;39.90;11.40;;;;;;;18.07;44.60;92858.78;5125845;28;20422;-74
2022/04/01 02:13:33;;;;;;;24.07;8.70;;;;;;;17.80;44.95;92887.69;5113594;28;20438;-74
2022/04/01 02:15:59;;;;;;;43.90;9.27;;;;;;;17.91;44.32;92886.53;5107214;28;20435;-74
2022/04/01 02:18:25;;;;;;;23.17;7.60;;;;;;;17.99;44.74;92851.47;5125557;28;20424;-74
2022/04/01 02:20:51;;;;;;;14.50;5.33;;;;;;;17.88;45.11;92869.34;5125082;28;20825;-73
2022/04/01 02:23:19;;;;;;;32.70;6.77;;;;;;;17.70;45.12;92833.81;5124079;28;20245;-73
2022/04/01 02:25:44;;;;;;;23.03;6.83;;;;;;;18.29;43.41;92830.97;5124370;28;20203;-73
2022/04/01 02:28:11;;;;;;;29.03;8.40;;;;;;;18.29;43.41;92830.97;5104278;28;20417;-73
2022/04/01 02:30:37;;;;;;;7.73;4.63;;;;;;;18.16;44.35;92815.81;5117415;28;20184;-74
2022/04/01 02:33:02;;;;;;;41.83;10.87;;;;;;;18.24;43.68;92797.38;5125335;28;20914;-74
2022/04/01 02:35:28;;;;;;;33.17;7.87;;;;;;;17.75;44.85;92796.69;5125474;28;20185;-73
2022/04/01 02:37:54;;;;;;;19.10;7.50;;;;;;;17.88;44.48;92762.72;5124529;28;20546;-74
2022/04/01 02:40:20;;;;;;;32.97;6.30;;;;;;;17.86;44.78;92807.19;5125529;28;20443;-74
2022/04/01 02:42:46;;;;;;;31.70;7.07;;;;;;;18.02;43.81;92800.63;5124197;28;20237;-74
2022/04/01 02:45:13;;;;;;;33.93;9.17;;;;;;;18.10;43.15;92799.97;5115952;28;20209;-73
2022/04/01 02:47:39;;;;;;;32.57;7.37;;;;;;;17.41;45.20;92790.78;5119861;28;20449;-73
2022/04/01 02:50:06;;;;;;;25.20;8.03;;;;;;;17.75;44.35;92770.25;5120795;28;20502;-74
2022/04/01 02:52:31;;;;;;;16.33;5.67;;;;;;;18.14;43.85;92761.25;5124382;28;20412;-73
2022/04/01 02:54:57;;;;;;;23.73;5.50;;;;;;;18.00;43.55;92754.34;5125252;28;20401;-73
2022/04/01 02:57:22;;;;;;;27.33;7.80;;;;;;;17.91;43.56;92751.56;5125046;28;20702;-74
2022/04/01 02:59:48;;;;;;;6.27;3.70;;;;;;;18.26;42.86;92760.81;5124632;28;20205;-74
2022/04/01 03:02:15;;;;;;;28.97;9.70;;;;;;;17.95;43.57;92745.41;5125179;28;20303;-74
2022/04/01 03:04:40;;;;;;;36.17;7.23;;;;;;;18.04;43.47;92740.25;5125277;28;20454;-74
2022/04/01 03:07:06;;;;;;;30.40;7.70;;;;;;;17.71;43.88;92739.38;5125487;28;20409;-73
2022/04/01 03:09:32;;;;;;;42.03;11.07;;;;;;;17.72;43.75;92723.22;5125379;28;20182;-73
2022/04/01 03:11:58;;;;;;;44.50;10.20;;;;;;;17.80;43.39;92744.81;5116457;28;20918;-73
2022/04/01 03:14:23;;;;;;;23.90;8.03;;;;;;;17.89;43.82;92730.69;5123802;28;20176;-73
2022/04/01 03:16:49;;;;;;;31.67;7.17;;;;;;;18.14;42.91;92734.78;5116605;28;20173;-74
2022/04/01 03:19:16;;;;;;;30.97;8.87;;;;;;;17.63;44.35;92714.34;5119540;28;20199;-73
2022/04/01 03:21:42;;;;;;;24.30;8.93;;;;;;;17.80;43.90;92724.41;5124108;28;20210;-74
2022/04/01 03:24:11;;;;;;;31.43;8.67;;;;;;;17.64;43.76;92736.28;5123573;28;20437;-74
2022/04/01 03:26:38;;;;;;;40.90;10.53;;;;;;;18.03;42.76;92746.59;5116983;28;20502;-74
2022/04/01 03:29:06;;;;;;;26.60;9.63;;;;;;;17.93;42.93;92747.53;5125019;28;20509;-74
2022/04/01 03:31:32;;;;;;;45.17;9.90;;;;;;;18.27;42.01;92748.38;5123070;28;20453;-74
2022/04/01 03:33:58;;;;;;;33.43;9.40;;;;;;;18.19;41.66;92741.09;5127520;28;20421;-74
2022/04/01 03:36:23;;;;;;;35.03;9.90;;;;;;;18.14;41.83;92726.84;5109959;28;20181;-74
2022/04/01 03:38:49;;;;;;;39.20;8.50;;;;;;;18.36;41.25;92756.44;5120086;28;20225;-74
2022/04/01 03:41:14;;;;;;;39.20;11.33;;;;;;;18.18;41.26;92728.94;5115394;28;20283;-74
2022/04/01 03:43:40;;;;;;;26.60;9.47;;;;;;;18.16;41.40;92718.63;5108455;28;20173;-74
2022/04/01 03:46:18;;;;;;;35.50;8.03;;;;;;;18.01;41.21;92740.03;5125651;28;20263;-74
2022/04/01 03:49:05;;;;;;;42.80;10.50;;;;;;;18.31;40.85;92749.38;5116943;28;20482;-73
2022/04/01 03:51:31;;;;;;;44.53;10.00;;;;;;;18.88;40.19;92754.53;5117917;28;20426;-73
2022/04/01 03:54:02;;;;;;;35.57;10.83;;;;;;;18.02;41.76;92753.00;5121276;27;20405;-74
2022/04/01 03:56:35;;;;;;;33.47;8.53;;;;;;;18.46;41.06;92738.53;5128534;27;20605;-74
2022/04/01 03:59:06;;;;;;;44.63;12.00;;;;;;;18.54;40.73;92737.06;5128338;28;20888;-74
2022/04/01 04:01:34;;;;;;;28.80;8.47;;;;;;;18.39;40.64;92724.88;5115066;28;20987;-73
2022/04/01 04:04:00;;;;;;;34.73;8.80;;;;;;;18.46;40.54;92712.03;5113147;28;20810;-73
2022/04/01 04:06:26;;;;;;;28.70;7.40;;;;;;;18.51;40.21;92719.09;5116599;28;20430;-74
2022/04/01 04:08:57;;;;;;;41.10;9.60;;;;;;;18.31;40.58;92713.09;5121828;28;20864;-73
2022/04/01 04:11:28;;;;;;;29.77;9.83;;;;;;;18.39;40.51;92708.22;5108613;28;20184;-74
2022/04/01 04:13:58;;;;;;;27.13;7.03;;;;;;;18.73;39.26;92703.34;5112347;28;20429;-74
2022/04/01 04:16:38;;;;;;;43.10;10.60;;;;;;;18.33;40.36;92688.97;5126542;28;20448;-74
2022/04/01 04:19:23;;;;;;;34.80;12.80;;;;;;;18.62;39.12;92669.38;5113982;28;20423;-74
2022/04/01 04:22:17;;;;;;;35.40;10.67;;;;;;;18.43;39.36;92677.41;5122427;28;20441;-74
2022/04/01 04:25:04;;;;;;;38.83;10.73;;;;;;;18.58;38.95;92694.91;5121636;28;21024;-73
2022/04/01 04:27:30;;;;;;;33.30;7.73;;;;;;;18.79;38.61;92679.41;5114752;28;20417;-73
2022/04/01 04:30:08;;;;;;;37.93;10.73;;;;;;;18.56;39.02;92681.94;5127993;28;20414;-74
2022/04/01 04:32:35;;;;;;;28.13;8.73;;;;;;;18.95;37.87;92687.88;5122521;28;20433;-74
2022/04/01 04:35:06;;;;;;;32.33;8.43;;;;;;;18.94;37.70;92687.09;5112397;28;20442;-73
2022/04/01 04:37:35;;;;;;;28.03;10.30;;;;;;;19.08;37.87;92706.47;5126384;28;20417;-74
2022/04/01 04:40:01;;;;;;;34.93;10.93;;;;;;;19.20;37.78;92700.66;5127205;28;20425;-73
2022/04/01 04:42:27;;;;;;;51.80;9.23;;;;;;;19.32;37.21;92708.09;5127375;28;20426;-73
2022/04/01 04:44:54;;;;;;;43.57;9.83;;;;;;;19.21;37.66;92726.06;5127006;28;20513;-73
2022/04/01 04:47:28;;;;;;;33.67;7.90;;;;;;;19.37;37.04;92725.75;5113683;28;20421;-73
2022/04/01 04:49:57;;;;;;;26.00;9.10;;;;;;;19.24;37.35;92733.44;5126598;28;20420;-74
2022/04/01 04:52:36;;;;;;;27.83;7.67;;;;;;;19.29;37.59;92746.63;5107321;27;20424;-74
2022/04/01 04:55:09;;;;;;;49.93;11.70;;;;;;;19.65;36.67;92737.94;5138793;27;20427;-73
2022/04/01 04:57:44;;;;;;;46.40;10.90;;;;;;;19.65;36.34;92748.53;5113296;28;20419;-73
2022/04/01 05:00:10;;;;;;;60.60;12.37;;;;;;;19.83;36.13;92738.13;5124202;27;20466;-74
2022/04/01 05:03:06;;;;;;;60.10;14.47;;;;;;;19.73;35.89;92728.50;5118871;28;20418;-75
2022/04/01 05:05:38;;;;;;;44.17;10.60;;;;;;;19.96;35.66;92745.25;5109190;28;20470;-76
2022/04/01 05:08:13;;;;;;;40.53;10.87;;;;;;;19.79;36.24;92742.47;5126579;28;20417;-76
2022/04/01 05:10:47;;;;;;;52.97;11.27;;;;;;;19.80;36.12;92733.41;5115419;28;20469;-75
2022/04/01 05:13:45;;;;;;;50.07;9.17;;;;;;;20.06;35.56;92742.38;5119610;27;20441;-75
2022/04/01 05:16:30;;;;;;;31.77;8.90;;;;;;;20.35;34.98;92729.75;5134300;27;20456;-75
2022/04/01 05:19:27;;;;;;;30.13;9.03;;;;;;;19.78;36.14;92701.84;5116444;28;20598;-76
2022/04/01 05:22:07;;;;;;;42.37;11.17;;;;;;;19.92;35.68;92719.59;5119983;28;20450;-75
2022/04/01 05:24:44;;;;;;;43.97;8.83;;;;;;;19.96;35.57;92713.41;5117922;28;20459;-75
2022/04/01 05:27:32;;;;;;;35.37;9.93;;;;;;;19.61;36.13;92723.66;5131182;27;20412;-75
2022/04/01 05:30:04;;;;;;;60.57;15.13;;;;;;;20.15;35.60;92731.03;5106883;28;20415;-75
2022/04/01 05:32:37;;;;;;;43.43;10.53;;;;;;;20.06;35.55;92731.75;5111168;28;20429;-75
2022/04/01 05:35:04;;;;;;;36.83;10.03;;;;;;;19.84;35.84;92713.13;5127753;27;20453;-76
2022/04/01 05:37:31;;;;;;;39.50;10.63;;;;;;;19.77;35.65;92732.13;5134088;27;20433;-75
2022/04/01 05:39:58;;;;;;;31.57;9.63;;;;;;;19.89;35.24;92737.69;5124008;27;20420;-76
2022/04/01 05:42:25;;;;;;;36.47;10.40;;;;;;;19.78;35.85;92740.88;5123766;28;20928;-75
2022/04/01 05:44:52;;;;;;;42.20;10.40;;;;;;;20.52;34.38;92742.38;5117775;28;20484;-76
2022/04/01 05:47:21;;;;;;;32.30;8.70;;;;;;;19.56;37.03;92718.50;5117351;28;20412;-75
2022/04/01 05:49:47;;;;;;;40.37;9.63;;;;;;;19.48;39.19;92743.84;5118466;28;20419;-75
2022/04/01 05:52:15;;;;;;;40.17;7.90;;;;;;;18.38;41.16;92743.69;5119788;27;20477;-76
2022/04/01 05:54:42;;;;;;;42.80;11.40;;;;;;;18.77;39.88;92745.94;5120935;27;20423;-75
2022/04/01 05:57:10;;;;;;;45.63;9.10;;;;;;;18.91;40.44;92730.91;5123885;28;21165;-76
2022/04/01 05:59:43;;;;;;;33.30;9.33;;;;;;;18.60;41.78;92714.72;5119564;28;20433;-75
2022/04/01 06:02:27;;;;;;;32.20;7.80;;;;;;;18.61;41.68;92761.34;5105327;28;20550;-75
2022/04/01 06:05:16;;;;;;;39.40;10.80;;;;;;;17.84;44.56;92745.81;5122090;28;20458;-75
2022/04/01 06:07:49;;;;;;;45.17;12.10;;;;;;;18.86;42.36;92725.69;5123210;28;20414;-76
2022/04/01 06:10:36;;;;;;;31.13;9.47;;;;;;;18.86;42.76;92722.25;5123736;28;20454;-75
2022/04/01 06:13:07;;;;;;;33.80;9.77;;;;;;;18.94;41.42;92744.63;5112421;28;20428;-75
2022/04/01 06:15:39;;;;;;;38.83;8.77;;;;;;;18.16;43.65;92771.56;5126556;28;20421;-75
2022/04/01 06:18:31;;;;;;;43.20;10.30;;;;;;;18.48;43.37;92752.28;5122618;28;20449;-75
2022/04/01 06:21:03;;;;;;;43.77;11.27;;;;;;;19.14;42.17;92748.75;5112910;28;20434;-75
2022/04/01 06:23:49;;;;;;;36.27;8.90;;;;;;;19.29;41.78;92745.81;5109915;28;20413;-76
2022/04/01 06:26:15;;;;;;;45.23;12.83;;;;;;;19.57;41.38;92769.69;5124991;28;20465;-75
2022/04/01 06:29:09;;;;;;;41.57;12.10;;;;;;;19.30;41.98;92764.09;5124766;28;20430;-75
2022/04/01 06:31:35;;;;;;;35.50;10.10;;;;;;;19.25;42.01;92772.13;5125240;28;20433;-76
2022/04/01 06:34:08;;;;;;;30.53;11.00;;;;;;;19.44;41.81;92760.63;5124315;28;20414;-76
2022/04/01 06:36:46;;;;;;;36.83;11.57;;;;;;;19.64;41.83;92772.72;5125312;28;20172;-75
2022/04/01 06:39:23;;;;;;;36.00;11.97;;;;;;;19.59;41.98;92791.38;5123773;28;20501;-75
2022/04/01 06:41:55;;;;;;;33.67;11.30;;;;;;;19.28;42.60;92776.06;5112069;28;20425;-75
2022/04/01 06:44:20;;;;;;;41.37;12.50;;;;;;;20.07;41.20;92783.78;5122414;28;20491;-76
2022/04/01 06:46:48;;;;;;;43.80;11.80;;;;;;;19.90;41.51;92770.34;5117563;28;20441;-75
2022/04/01 06:49:14;;;;;;;34.53;11.03;;;;;;;19.34;42.54;92804.06;5110272;28;20762;-75
2022/04/01 06:51:40;;;;;;;41.07;11.80;;;;;;;19.83;41.93;92802.59;5124991;28;20483;-75
2022/04/01 06:54:06;;;;;;;35.03;10.80;;;;;;;20.58;40.53;92799.63;5123163;28;20422;-76
2022/04/01 06:56:33;;;;;;;35.73;10.07;;;;;;;20.15;41.28;92797.44;5124831;28;20485;-76
2022/04/01 06:58:58;;;;;;;38.33;11.07;;;;;;;19.89;41.80;92805.94;5125191;28;20434;-76
2022/04/01 07:01:25;;;;;;;41.50;13.30;;;;;;;20.67;40.37;92803.16;5119832;28;20481;-75
2022/04/01 07:03:52;;;;;;;54.17;11.10;;;;;;;20.47;40.48;92791.13;5115767;28;20767;-76
2022/04/01 07:06:19;;;;;;;43.60;13.27;;;;;;;20.08;41.23;92798.59;5126127;28;20466;-76
2022/04/01 07:08:46;;;;;;;40.03;11.93;;;;;;;19.92;41.42;92800.03;5126970;27;20846;-76
2022/04/01 07:11:11;;;;;;;45.83;13.30;;;;;;;20.49;40.54;92788.94;5129086;28;20501;-76
2022/04/01 07:13:37;;;;;;;50.57;13.87;;;;;;;19.85;42.08;92794.34;5130379;28;20417;-75
2022/04/01 07:16:03;;;;;;;40.07;13.03;;;;;;;20.29;40.79;92790.97;5129268;28;20180;-76
2022/04/01 07:18:29;;;;;;;52.83;12.27;;;;;;;20.34;41.02;92784.00;5127623;28;20523;-76
2022/04/01 07:20:54;;;;;;;45.33;12.80;;;;;;;20.55;40.19;92784.31;5128871;28;20180;-76
2022/04/01 07:23:20;;;;;;;40.60;11.20;;;;;;;19.75;41.86;92768.81;5127173;28;20410;-76
2022/04/01 07:25:45;;;;;;;46.57;12.70;;;;;;;20.18;40.47;92775.56;5122551;28;20208;-76
2022/04/01 07:28:11;;;;;;;40.70;10.93;;;;;;;20.45;40.06;92774.66;5127242;28;20253;-76
2022/04/01 07:30:37;;;;;;;40.67;12.13;;;;;;;21.05;38.29;92810.75;5128562;28;20185;-76
2022/04/01 07:33:03;;;;;;;38.40;10.40;;;;;;;21.19;38.25;92779.53;5128663;28;20172;-76
2022/04/01 07:35:30;;;;;;;44.97;11.90;;;;;;;21.60;37.20;92778.44;5122805;28;20454;-76
2022/04/01 07:37:56;;;;;;;44.93;11.00;;;;;;;21.05;37.97;92770.84;5125320;28;20417;-76
2022/04/01 07:40:24;;;;;;;43.37;10.63;;;;;;;21.24;37.81;92765.28;5122265;28;20978;-76
2022/04/01 07:42:51;;;;;;;47.10;11.50;;;;;;;21.51;37.08;92764.31;5118823;28;20530;-76
2022/04/01 07:45:17;;;;;;;45.93;11.63;;;;;;;21.76;37.77;92768.16;5120073;28;20462;-75
2022/04/01 07:47:45;;;;;;;40.07;11.60;;;;;;;22.00;36.21;92762.38;5121279;28;20435;-77
2022/04/01 07:50:12;;;;;;;45.00;12.37;;;;;;;22.21;35.83;92788.41;5113160;28;20469;-77
2022/04/01 07:52:40;;;;;;;43.07;12.20;;;;;;;22.87;34.07;92755.44;5128379;27;20501;-77
2022/04/01 07:55:07;;;;;;;56.30;12.57;;;;;;;23.06;33.75;92747.88;5115864;28;20434;-77
2022/04/01 07:57:33;;;;;;;43.40;13.40;;;;;;;23.21;33.43;92759.16;5128752;28;20493;-76
2022/04/01 07:59:58;;;;;;;35.30;11.57;;;;;;;22.31;34.55;92750.81;5129262;28;20425;-77
2022/04/01 08:02:24;;;;;;;54.30;12.53;;;;;;;22.27;34.49;92725.91;5121750;28;20239;-75
2022/04/01 08:04:49;;;;;;;43.93;11.30;;;;;;;22.94;33.07;92761.09;5117146;28;20197;-75
2022/04/01 08:07:15;;;;;;;55.70;12.10;;;;;;;23.15;32.34;92739.84;5125677;28;20177;-76
2022/04/01 08:09:41;;;;;;;37.77;9.83;;;;;;;22.10;32.16;92771.16;5126652;28;20203;-76
2022/04/01 08:12:08;;;;;;;41.63;10.30;;;;;;;23.02;30.81;92741.59;5123400;28;20472;-76
2022/04/01 08:14:36;;;;;;;45.27;9.90;;;;;;;23.17;30.40;92756.34;5126934;28;20631;-76
2022/04/01 08:17:06;;;;;;;27.03;8.43;;;;;;;23.02;30.09;92767.50;5121107;28;21376;-76
2022/04/01 08:19:32;;;;;;;35.07;7.27;;;;;;;22.27;31.08;92741.09;5127714;28;20407;-76
2022/04/01 08:21:58;;;;;;;26.90;7.37;;;;;;;22.42;31.34;92752.06;5125707;28;20430;-76
2022/04/01 08:24:24;;;;;;;31.60;8.30;;;;;;;22.67;31.54;92751.56;5125085;28;20200;-76
2022/04/01 08:26:53;;;;;;;37.47;11.37;;;;;;;22.87;31.23;92734.88;5127604;28;20414;-76
2022/04/01 08:29:18;;;;;;;37.57;11.97;;;;;;;22.54;31.32;92761.31;5120048;28;20426;-76
2022/04/01 08:31:44;;;;;;;31.17;10.10;;;;;;;22.77;31.14;92729.91;5120622;28;20420;-75
2022/04/01 08:34:10;;;;;;;42.37;10.27;;;;;;;22.45;31.87;92723.22;5130558;27;20623;-76
2022/04/01 08:36:35;;;;;;;34.20;10.70;;;;;;;22.51;31.51;92722.72;5122494;28;20203;-76
2022/04/01 08:39:03;;;;;;;43.87;9.30;;;;;;;23.11;31.16;92746.94;5121468;28;20257;-75
2022/04/01 08:41:28;;;;;;;22.50;9.23;;;;;;;22.49;32.29;92719.59;5118511;28;20236;-76
2022/04/01 08:43:54;;;;;;;29.33;9.10;;;;;;;21.48;34.20;92740.22;5121190;28;20427;-77
2022/04/01 08:46:21;;;;;;;34.90;9.70;;;;;;;21.54;33.89;92710.47;5117262;28;20203;-76
2022/04/01 08:48:49;;;;;;;25.23;7.40;;;;;;;21.62;34.18;92704.38;5114732;28;20188;-76
2022/04/01 08:51:14;;;;;;;28.53;5.97;;;;;;;21.50;34.49;92706.88;5127898;28;20410;-76
2022/04/01 08:53:43;;;;;;;34.93;8.47;;;;;;;20.98;36.41;92690.72;5128453;27;20495;-76
2022/04/01 08:56:08;;;;;;;30.90;7.07;;;;;;;21.47;35.91;92691.50;5148512;27;20283;-76
2022/04/01 08:58:34;;;;;;;32.80;8.13;;;;;;;20.58;37.25;92666.75;5132450;27;20461;-76
2022/04/01 09:01:02;;;;;;;66.73;15.20;;;;;;;20.46;36.75;92654.03;5120813;28;20212;-76
2022/04/01 09:03:28;;;;;;;24.40;6.80;;;;;;;21.21;36.24;92647.00;5123698;28;20454;-76
2022/04/01 09:05:56;;;;;;;42.20;9.77;;;;;;;20.92;36.84;92644.84;5125065;28;20465;-76
2022/04/01 09:08:37;;;;;;;40.53;7.70;;;;;;;21.11;35.96;92633.97;5126265;28;20440;-76
2022/04/01 09:11:16;;;;;;;24.70;7.10;;;;;;;21.04;36.27;92647.72;5126495;28;20417;-75
2022/04/01 09:13:47;;;;;;;18.40;7.00;;;;;;;20.67;36.88;92609.13;5127443;28;20440;-75
2022/04/01 09:16:33;;;;;;;30.43;6.80;;;;;;;21.37;35.41;92620.72;5127766;27;20453;-75
2022/04/01 09:19:04;;;;;;;34.17;8.47;;;;;;;21.32;35.28;92588.91;5126069;28;20437;-75
2022/04/01 09:21:31;;;;;;;38.77;9.37;;;;;;;21.29;35.47;92599.44;5122584;28;20769;-75
2022/04/01 09:23:57;;;;;;;33.13;10.20;;;;;;;21.49;35.03;92609.47;5121692;28;20431;-76
2022/04/01 09:26:35;;;;;;;20.33;6.67;;;;;;;21.59;35.04;92581.78;5118578;28;20449;-76
2022/04/01 09:29:04;;;;;;;32.73;8.87;;;;;;;21.43;35.63;92584.88;5126848;28;20550;-75
2022/04/01 09:31:37;;;;;;;27.83;6.30;;;;;;;20.89;39.16;92580.88;5139212;27;20431;-76
2022/04/01 09:34:06;;;;;;;19.10;6.47;;;;;;;21.51;37.49;92583.31;5113444;28;20437;-75
2022/04/01 09:36:36;;;;;;;26.90;7.93;;;;;;;21.76;36.10;92562.31;5126944;28;20418;-76
2022/04/01 09:39:11;;;;;;;28.20;7.03;;;;;;;20.84;37.73;92571.97;5113797;28;20850;-77
2022/04/01 09:41:42;;;;;;;24.33;10.10;;;;;;;21.45;36.79;92592.56;5112895;28;20414;-76
2022/04/01 09:44:15;;;;;;;32.37;9.57;;;;;;;21.02;37.18;92542.75;5126786;28;20429;-77
2022/04/01 09:46:46;;;;;;;32.53;7.50;;;;;;;21.20;36.72;92538.22;5112550;28;20466;-76
2022/04/01 09:49:14;;;;;;;45.90;9.53;;;;;;;21.93;35.47;92567.66;5118550;28;20411;-77
2022/04/01 09:51:42;;;;;;;20.47;6.27;;;;;;;21.82;35.77;92558.41;5117328;28;20423;-77
2022/04/01 09:54:08;;;;;;;36.33;8.17;;;;;;;21.94;35.61;92571.84;5123947;27;20435;-77
2022/04/01 09:56:41;;;;;;;29.83;5.80;;;;;;;22.16;34.48;92583.44;5126223;28;20402;-76
2022/04/01 09:59:08;;;;;;;29.73;8.70;;;;;;;22.50;34.53;92577.22;5124069;28;20184;-76
2022/04/01 10:01:35;;;;;;;41.60;11.43;;;;;;;22.51;33.94;92589.44;5114262;28;21036;-76
2022/04/01 10:04:01;;;;;;;25.27;6.97;;;;;;;21.77;34.89;92582.53;5125711;28;20430;-77
2022/04/01 10:06:28;;;;;;;29.57;6.57;;;;;;;21.92;34.80;92605.25;5112754;28;20484;-77
2022/04/01 10:08:56;;;;;;;27.47;6.10;;;;;;;22.23;34.15;92613.81;5125461;28;20457;-79
2022/04/01 10:11:23;;;;;;;14.80;5.87;;;;;;;22.32;33.54;92629.78;5126222;28;20435;-76
2022/04/01 10:13:50;;;;;;;30.13;7.27;;;;;;;22.10;33.74;92577.47;5126446;28;20489;-76
2022/04/01 10:16:18;;;;;;;37.10;7.60;;;;;;;22.36;33.45;92589.97;5125349;28;20406;-77
2022/04/01 10:18:47;;;;;;;42.47;10.90;;;;;;;23.64;31.59;92585.38;5126602;28;20444;-76
2022/04/01 10:21:17;;;;;;;25.93;6.07;;;;;;;22.80;32.71;92575.38;5112753;28;21103;-77
2022/04/01 10:24:01;;;;;;;23.83;6.40;;;;;;;22.49;33.20;92567.66;5116678;27;20537;-77
2022/04/01 10:26:33;;;;;;;27.40;8.00;;;;;;;22.47;32.62;92582.41;5115757;28;20916;-77
2022/04/01 10:29:02;;;;;;;23.93;5.83;;;;;;;22.64;33.06;92571.69;5125252;28;20505;-77
2022/04/01 10:31:27;;;;;;;23.70;7.87;;;;;;;22.49;32.98;92580.22;5126032;28;20415;-77
2022/04/01 10:33:53;;;;;;;29.03;8.80;;;;;;;22.94;32.26;92561.03;5125232;28;20513;-78
2022/04/01 10:36:24;;;;;;;19.63;6.67;;;;;;;22.34;33.50;92584.94;5118984;28;20165;-77
2022/04/01 10:38:59;;;;;;;21.53;6.77;;;;;;;22.61;32.71;92593.63;5119884;28;20184;-77
2022/04/01 10:41:25;;;;;;;24.07;6.73;;;;;;;22.85;32.54;92544.28;5112894;28;20420;-76
2022/04/01 10:43:54;;;;;;;29.53;7.90;;;;;;;23.30;31.85;92560.50;5125374;28;20433;-77
2022/04/01 10:46:20;;;;;;;26.80;5.60;;;;;;;23.32;31.88;92573.53;5118444;28;20478;-77
2022/04/01 10:52:18;;;;;;;30.27;6.00;;;;;;;22.95;32.33;92570.56;5118718;28;20187;-77
2022/04/01 10:54:45;;;;;;;25.13;6.70;;;;;;;22.71;32.19;92571.97;5117922;28;20414;-76
2022/04/01 10:57:25;;;;;;;24.50;6.10;;;;;;;22.80;32.02;92543.38;5110742;28;20423;-77
2022/04/01 10:59:52;;;;;;;40.33;8.57;;;;;;;22.69;31.72;92552.84;5125959;28;20397;-77
2022/04/01 11:02:19;;;;;;;42.17;8.93;;;;;;;23.25;31.25;92543.88;5116497;28;21212;-77
2022/04/01 11:04:46;;;;;;;21.47;5.43;;;;;;;23.58;30.57;92536.72;5114709;28;20588;-76
2022/04/01 11:07:21;;;;;;;17.77;6.10;;;;;;;23.47;30.57;92511.53;5116085;28;20518;-77
2022/04/01 11:09:49;;;;;;;24.70;7.10;;;;;;;23.78;30.05;92510.28;5114237;28;20500;-77
2022/04/01 11:12:18;;;;;;;28.50;6.63;;;;;;;23.84;29.97;92527.69;5110207;28;20427;-78
2022/04/01 11:15:12;;;;;;;19.40;6.80;;;;;;;23.62;30.02;92501.31;5114733;28;20458;-77
2022/04/01 11:17:41;;;;;;;19.03;5.50;;;;;;;22.97;30.44;92491.00;5107291;28;20457;-77
2022/04/01 11:20:17;;;;;;;25.80;4.60;;;;;;;23.17;29.73;92508.94;5115932;28;20412;-77
2022/04/01 11:22:48;;;;;;;21.20;7.27;;;;;;;22.60;31.38;92530.75;5119467;28;20423;-77
2022/04/01 11:25:33;;;;;;;34.93;6.77;;;;;;;21.83;32.82;92536.81;5112342;28;20602;-78
2022/04/01 11:28:01;;;;;;;14.43;6.20;;;;;;;21.86;33.66;92543.38;5120825;28;20434;-77
2022/04/01 11:30:34;;;;;;;25.87;6.43;;;;;;;22.05;32.62;92563.56;5116961;28;20437;-76
2022/04/01 11:33:09;;;;;;;31.07;7.77;;;;;;;21.74;32.47;92561.88;5115050;28;20460;-77
2022/04/01 11:35:39;;;;;;;23.63;7.50;;;;;;;21.58;33.35;92558.91;5115071;28;20947;-77
2022/04/01 11:38:06;;;;;;;18.97;7.20;;;;;;;21.47;33.36;92574.41;5116757;28;20485;-77
2022/04/01 11:40:34;;;;;;;13.40;4.77;;;;;;;21.31;33.87;92597.25;5121409;27;20414;-77